createdAt,value
2018-09-09T00:01:13.979Z,67.20
2018-09-09T00:03:42.789Z,67.15
2018-09-09T00:06:11.478Z,67.27
2018-09-09T00:08:40.571Z,67.11
2018-09-09T00:11:10.187Z,67.61
2018-09-09T00:13:38.967Z,67.81
2018-09-09T00:16:07.830Z,68.02
2018-09-09T00:18:36.691Z,68.38
2018-09-09T00:21:05.899Z,69.83
2018-09-09T00:23:35.136Z,69.89
2018-09-09T00:26:03.870Z,69.80
2018-09-09T00:28:32.567Z,69.91
2018-09-09T00:31:01.237Z,70.52
2018-09-09T00:33:29.851Z,70.64
2018-09-09T00:35:59.636Z,71.05
2018-09-09T00:38:28.466Z,70.89
2018-09-09T00:40:57.186Z,70.29
2018-09-09T00:43:25.735Z,69.96
2018-09-09T00:45:54.967Z,71.13
2018-09-09T00:48:23.655Z,70.60
2018-09-09T00:50:58.886Z,70.10
2018-09-09T00:53:32.783Z,70.47
2018-09-09T00:56:02.127Z,69.48
2018-09-09T00:58:30.685Z,69.65
2018-09-09T01:01:04.403Z,69.73
2018-09-09T01:03:33.586Z,69.24
2018-09-09T01:06:02.244Z,69.50
2018-09-09T01:08:31.156Z,68.98
2018-09-09T01:10:59.916Z,69.53
2018-09-09T01:13:28.768Z,70.21
2018-09-09T01:15:57.395Z,70.21
2018-09-09T01:18:26.576Z,70.22
2018-09-09T01:20:55.200Z,70.59
2018-09-09T01:23:23.875Z,71.38
2018-09-09T01:25:53.610Z,71.02
2018-09-09T01:28:22.276Z,71.27
2018-09-09T01:30:50.988Z,71.08
2018-09-09T01:33:19.632Z,71.26
2018-09-09T01:35:48.920Z,70.95
2018-09-09T01:38:17.624Z,71.40
2018-09-09T01:40:46.737Z,71.00
2018-09-09T01:43:16.612Z,70.48
2018-09-09T01:45:45.416Z,70.99
2018-09-09T01:48:13.980Z,71.33
2018-09-09T01:50:42.675Z,71.48
2018-09-09T01:53:11.906Z,71.13
2018-09-09T01:55:40.464Z,71.74
2018-09-09T01:58:09.155Z,71.32
2018-09-09T02:00:37.856Z,71.48
2018-09-09T02:03:07.037Z,71.18
2018-09-09T02:05:35.838Z,71.28
2018-09-09T02:08:04.955Z,71.50
2018-09-09T02:10:33.599Z,71.40
2018-09-09T02:13:02.440Z,71.76
2018-09-09T02:15:31.316Z,72.16
2018-09-09T02:18:00.054Z,72.32
2018-09-09T02:20:29.160Z,71.88
2018-09-09T02:22:57.876Z,71.43
2018-09-09T02:25:26.594Z,71.37
2018-09-09T02:27:55.195Z,71.34
2018-09-09T02:30:24.956Z,71.03
2018-09-09T02:32:53.819Z,70.93
2018-09-09T02:35:22.548Z,70.92
2018-09-09T02:37:51.364Z,70.82
2018-09-09T02:40:19.937Z,70.67
2018-09-09T02:42:48.604Z,70.25
2018-09-09T02:45:17.196Z,70.52
2018-09-09T02:47:45.808Z,70.52
2018-09-09T02:50:14.370Z,70.31
2018-09-09T02:52:43.064Z,70.95
2018-09-09T02:55:12.123Z,70.84
2018-09-09T02:57:40.839Z,70.78
2018-09-09T03:00:09.463Z,71.16
2018-09-09T03:02:38.356Z,71.25
2018-09-09T03:05:07.091Z,71.31
2018-09-09T03:07:35.638Z,70.74
2018-09-09T03:10:04.276Z,70.21
2018-09-09T03:12:32.856Z,70.49
2018-09-09T03:15:01.639Z,70.70
2018-09-09T03:17:30.300Z,70.49
2018-09-09T03:19:59.143Z,70.48
2018-09-09T03:22:28.312Z,70.12
2018-09-09T03:24:57.517Z,70.47
2018-09-09T03:27:26.299Z,70.62
2018-09-09T03:29:55.098Z,70.06
2018-09-09T03:32:23.887Z,70.86
2018-09-09T03:34:52.553Z,70.51
2018-09-09T03:37:21.135Z,70.63
2018-09-09T03:39:50.324Z,70.66
2018-09-09T03:42:19.004Z,70.54
2018-09-09T03:44:47.747Z,70.90
2018-09-09T03:47:16.580Z,71.10
2018-09-09T03:49:46.091Z,71.16
2018-09-09T03:52:15.444Z,71.32
2018-09-09T03:54:44.064Z,71.54
2018-09-09T03:57:12.960Z,71.90
2018-09-09T03:59:41.623Z,72.56
2018-09-09T04:02:11.159Z,72.20
2018-09-09T04:04:39.682Z,72.46
2018-09-09T04:07:08.925Z,72.85
2018-09-09T04:09:37.793Z,72.84
2018-09-09T04:12:06.608Z,72.26
2018-09-09T04:14:36.305Z,71.96
2018-09-09T04:17:05.528Z,72.58
2018-09-09T04:19:34.120Z,72.51
2018-09-09T04:22:02.883Z,71.86
2018-09-09T04:24:31.740Z,71.94
2018-09-09T04:27:00.428Z,71.41
2018-09-09T04:29:29.163Z,71.66
2018-09-09T04:31:58.586Z,71.90
2018-09-09T04:34:27.107Z,72.29
2018-09-09T04:36:55.678Z,72.99
2018-09-09T04:39:24.036Z,73.22
2018-09-09T04:41:53.491Z,73.01
2018-09-09T04:44:22.269Z,72.53
2018-09-09T04:46:51.103Z,72.29
2018-09-09T04:49:19.850Z,72.03
2018-09-09T04:51:48.623Z,71.99
2018-09-09T04:54:17.810Z,71.90
2018-09-09T04:56:46.466Z,71.43
2018-09-09T04:59:15.105Z,72.04
2018-09-09T05:01:43.691Z,72.33
2018-09-09T05:04:12.581Z,72.69
2018-09-09T05:06:41.296Z,72.22
2018-09-09T05:09:10.360Z,72.13
2018-09-09T05:11:39.061Z,72.40
2018-09-09T05:14:07.928Z,72.93
2018-09-09T05:16:36.854Z,72.95
2018-09-09T05:19:05.776Z,72.97
2018-09-09T05:21:34.324Z,72.49
2018-09-09T05:24:03.056Z,71.63
2018-09-09T05:26:31.860Z,71.35
2018-09-09T05:29:01.450Z,71.27
2018-09-09T05:31:30.253Z,71.18
2018-09-09T05:33:59.051Z,71.33
2018-09-09T05:36:27.859Z,71.83
2018-09-09T05:38:56.645Z,72.09
2018-09-09T05:41:25.484Z,71.69
2018-09-09T05:43:55.003Z,71.41
2018-09-09T05:46:23.812Z,71.52
2018-09-09T05:48:52.580Z,70.79
2018-09-09T05:51:21.148Z,70.80
2018-09-09T05:53:50.210Z,70.10
2018-09-09T05:56:18.812Z,69.64
2018-09-09T05:58:47.488Z,69.39
2018-09-09T06:01:16.090Z,69.83
2018-09-09T06:03:44.855Z,70.31
2018-09-09T06:06:13.397Z,70.06
2018-09-09T06:08:42.207Z,69.85
2018-09-09T06:11:11.474Z,70.06
2018-09-09T06:13:40.393Z,69.59
2018-09-09T06:16:09.337Z,69.49
2018-09-09T06:18:38.001Z,69.51
2018-09-09T06:21:06.954Z,69.74
2018-09-09T06:23:35.483Z,69.59
2018-09-09T06:26:04.009Z,69.31
2018-09-09T06:28:32.815Z,69.68
2018-09-09T06:31:01.412Z,68.80
2018-09-09T06:33:30.104Z,68.41
2018-09-09T06:35:58.656Z,69.01
2018-09-09T06:38:27.271Z,69.09
2018-09-09T06:40:55.943Z,68.06
2018-09-09T06:43:24.641Z,67.96
2018-09-09T06:46:08.367Z,67.01
2018-09-09T06:48:38.179Z,66.74
2018-09-09T06:51:07.051Z,66.23
2018-09-09T06:53:36.596Z,66.44
2018-09-09T06:56:05.276Z,66.00
2018-09-09T06:58:34.843Z,66.47
2018-09-09T07:01:04.245Z,66.99
2018-09-09T07:03:32.951Z,66.62
2018-09-09T07:06:02.332Z,66.62
2018-09-09T07:08:30.988Z,66.97
2018-09-09T07:11:00.067Z,67.39
2018-09-09T07:13:28.491Z,66.33
2018-09-09T07:15:57.219Z,65.82
2018-09-09T07:21:28.860Z,65.71
2018-09-09T07:23:57.463Z,65.23
2018-09-09T07:26:26.708Z,64.75
2018-09-09T07:28:55.376Z,64.27
2018-09-09T07:31:24.039Z,64.06
2018-09-09T07:33:55.688Z,63.42
2018-09-09T07:36:24.942Z,63.32
2018-09-09T07:38:53.571Z,63.56
2018-09-09T07:41:22.259Z,63.54
2018-09-09T07:43:50.945Z,62.58
2018-09-09T07:46:19.911Z,62.30
2018-09-09T07:48:48.407Z,62.41
2018-09-09T07:51:16.999Z,61.98
2018-09-09T07:53:45.556Z,60.88
2018-09-09T07:56:14.144Z,60.13
2018-09-09T07:58:43.936Z,60.00
2018-09-09T08:01:12.570Z,59.12
2018-09-09T08:03:41.216Z,59.67
2018-09-09T08:06:10.781Z,58.92
2018-09-09T08:08:46.180Z,58.17
2018-09-09T08:11:14.864Z,58.73
2018-09-09T08:13:44.095Z,58.84
2018-09-09T08:16:13.081Z,58.58
2018-09-09T08:18:42.297Z,59.46
2018-09-09T08:21:11.309Z,58.24
2018-09-09T08:23:39.935Z,58.53
2018-09-09T08:26:08.523Z,57.85
2018-09-09T08:28:37.500Z,57.59
2018-09-09T08:31:06.179Z,56.98
2018-09-09T08:33:35.093Z,56.48
2018-09-09T08:36:04.372Z,54.25
2018-09-09T08:38:33.036Z,52.76
2018-09-09T08:41:01.703Z,52.37
2018-09-09T08:43:30.467Z,51.93
2018-09-09T08:45:59.129Z,50.75
2018-09-09T08:48:27.882Z,50.50
2018-09-09T08:50:56.635Z,49.69
2018-09-09T08:53:25.180Z,49.63
2018-09-09T08:55:54.696Z,49.24
2018-09-09T08:58:23.819Z,48.48
2018-09-09T09:00:52.647Z,47.78
2018-09-09T09:03:21.780Z,47.42
2018-09-09T09:05:50.665Z,47.38
2018-09-09T09:08:19.534Z,46.45
2018-09-09T09:10:48.194Z,47.32
2018-09-09T09:13:16.896Z,47.70
2018-09-09T09:15:45.457Z,47.01
2018-09-09T09:18:14.072Z,45.78
2018-09-09T09:20:42.875Z,45.65
2018-09-09T09:23:12.976Z,45.70
2018-09-09T09:25:47.576Z,45.66
2018-09-09T09:28:16.769Z,45.74
2018-09-09T09:30:45.511Z,45.60
2018-09-09T09:33:22.731Z,44.96
2018-09-09T09:36:02.511Z,45.50
2018-09-09T09:38:40.557Z,45.12
2018-09-09T09:41:18.691Z,45.70
2018-09-09T09:44:00.289Z,45.49
2018-09-09T09:46:37.851Z,45.04
2018-09-09T09:49:16.366Z,44.51
2018-09-09T09:51:54.887Z,44.08
2018-09-09T09:54:24.022Z,42.58
2018-09-09T09:57:01.583Z,43.89
2018-09-09T09:59:42.055Z,44.03
2018-09-09T10:02:22.222Z,43.09
2018-09-09T10:04:52.026Z,41.35
2018-09-09T10:07:20.760Z,40.84
2018-09-09T10:09:49.384Z,41.53
2018-09-09T10:12:18.211Z,41.17
2018-09-09T10:14:46.751Z,41.56
2018-09-09T10:17:15.625Z,41.28
2018-09-09T10:19:44.350Z,41.54
2018-09-09T10:22:13.214Z,41.65
2018-09-09T10:24:41.908Z,39.25
2018-09-09T10:27:10.805Z,39.92
2018-09-09T10:29:39.513Z,39.21
2018-09-09T10:32:08.172Z,37.15
2018-09-09T10:34:37.227Z,37.06
2018-09-09T10:37:06.540Z,38.25
2018-09-09T10:39:35.240Z,38.39
2018-09-09T10:42:04.170Z,38.57
2018-09-09T10:44:32.823Z,38.12
2018-09-09T10:47:01.411Z,38.39
2018-09-09T10:49:29.983Z,38.96
2018-09-09T10:51:58.673Z,38.92
2018-09-09T10:54:27.560Z,39.61
2018-09-09T10:56:56.272Z,40.82
2018-09-09T10:59:24.911Z,40.41
2018-09-09T11:01:53.630Z,41.00
2018-09-09T11:04:22.565Z,40.28
2018-09-09T11:06:51.393Z,40.74
2018-09-09T11:09:19.956Z,40.70
2018-09-09T11:11:48.531Z,40.08
2018-09-09T11:14:17.244Z,40.50
2018-09-09T11:16:45.917Z,40.72
2018-09-09T11:19:14.751Z,40.68
2018-09-09T11:21:43.508Z,40.60
2018-09-09T11:24:12.185Z,39.53
2018-09-09T11:26:41.038Z,38.93
2018-09-09T11:29:09.879Z,39.43
2018-09-09T11:31:39.255Z,39.71
2018-09-09T11:34:08.435Z,40.25
2018-09-09T11:36:37.243Z,40.07
2018-09-09T11:39:07.968Z,39.75
2018-09-09T11:41:36.919Z,38.71
2018-09-09T11:44:05.864Z,38.73
2018-09-09T11:46:35.309Z,39.59
2018-09-09T11:49:04.140Z,39.39
2018-09-09T11:51:33.287Z,39.63
2018-09-09T11:54:01.933Z,39.47
2018-09-09T11:56:30.724Z,39.79
2018-09-09T11:58:59.548Z,39.43
2018-09-09T12:01:29.521Z,39.13
2018-09-09T12:03:58.116Z,38.47
2018-09-09T12:06:26.888Z,38.26
2018-09-09T12:08:55.685Z,38.39
2018-09-09T12:11:24.364Z,37.52
2018-09-09T12:13:53.888Z,38.80
2018-09-09T12:16:23.689Z,37.71
2018-09-09T12:18:52.457Z,37.65
2018-09-09T12:21:21.125Z,38.68
2018-09-09T12:23:49.808Z,38.79
2018-09-09T12:26:18.370Z,39.84
2018-09-09T12:28:46.980Z,38.46
2018-09-09T12:31:15.681Z,38.50
2018-09-09T12:33:44.499Z,38.44
2018-09-09T12:36:13.111Z,37.91
2018-09-09T12:38:41.707Z,37.80
2018-09-09T12:41:10.412Z,37.46
2018-09-09T12:43:44.108Z,39.18
2018-09-09T12:46:17.758Z,38.62
2018-09-09T12:48:51.444Z,38.62
2018-09-09T12:51:29.757Z,38.39
2018-09-09T12:54:07.786Z,37.96
2018-09-09T12:56:36.797Z,37.54
2018-09-09T12:59:05.407Z,37.22
2018-09-09T13:01:34.395Z,37.35
2018-09-09T13:04:02.968Z,36.69
2018-09-09T13:06:31.770Z,36.97
2018-09-09T13:09:00.355Z,36.20
2018-09-09T13:11:28.885Z,36.33
2018-09-09T13:13:57.670Z,37.19
2018-09-09T13:16:26.463Z,36.93
2018-09-09T13:18:55.080Z,36.87
2018-09-09T13:21:23.748Z,37.02
2018-09-09T13:23:52.304Z,37.34
2018-09-09T13:26:21.095Z,37.55
2018-09-09T13:28:49.829Z,36.92
2018-09-09T13:31:18.515Z,37.32
2018-09-09T13:33:48.668Z,36.85
2018-09-09T13:36:17.304Z,36.85
2018-09-09T13:38:46.004Z,36.64
2018-09-09T13:41:14.686Z,37.30
2018-09-09T13:43:43.421Z,36.63
2018-09-09T13:46:12.060Z,36.29
2018-09-09T13:48:40.940Z,35.78
2018-09-09T13:51:10.279Z,36.10
2018-09-09T13:53:38.977Z,34.94
2018-09-09T13:56:08.243Z,35.00
2018-09-09T13:58:36.929Z,35.84
2018-09-09T14:01:05.569Z,35.72
2018-09-09T14:03:34.144Z,33.35
2018-09-09T14:06:03.563Z,33.87
2018-09-09T14:08:32.461Z,34.42
2018-09-09T14:11:01.139Z,33.46
2018-09-09T14:13:29.738Z,34.40
2018-09-09T14:15:58.958Z,34.86
2018-09-09T14:18:27.619Z,32.75
2018-09-09T14:20:56.312Z,32.90
2018-09-09T14:23:24.970Z,34.75
2018-09-09T14:25:53.679Z,35.93
2018-09-09T14:28:22.353Z,34.65
2018-09-09T14:30:50.949Z,34.32
2018-09-09T14:33:20.249Z,35.30
2018-09-09T14:35:48.791Z,35.91
2018-09-09T14:38:17.718Z,34.95
2018-09-09T14:40:46.292Z,35.81
2018-09-09T14:43:15.068Z,35.71
2018-09-09T14:45:46.031Z,34.80
2018-09-09T14:48:14.700Z,34.58
2018-09-09T14:50:43.523Z,35.42
2018-09-09T14:53:12.554Z,35.30
2018-09-09T14:55:41.371Z,35.68
2018-09-09T14:58:10.093Z,37.17
2018-09-09T15:00:38.841Z,36.28
2018-09-09T15:03:07.947Z,37.49
2018-09-09T15:05:36.796Z,36.96
2018-09-09T15:08:05.623Z,37.17
2018-09-09T15:10:34.269Z,38.53
2018-09-09T15:13:03.401Z,38.48
2018-09-09T15:15:32.229Z,39.47
2018-09-09T15:18:01.371Z,39.41
2018-09-09T15:20:30.152Z,38.75
2018-09-09T15:22:58.951Z,40.12
2018-09-09T15:25:27.628Z,39.49
2018-09-09T15:27:57.036Z,39.34
2018-09-09T15:30:25.768Z,39.48
2018-09-09T15:32:54.533Z,39.42
2018-09-09T15:35:24.471Z,39.99
2018-09-09T15:37:53.090Z,39.71
2018-09-09T15:40:21.804Z,38.60
2018-09-09T15:42:50.518Z,39.08
2018-09-09T15:45:19.208Z,39.84
2018-09-09T15:47:48.974Z,40.28
2018-09-09T15:50:19.198Z,38.09
2018-09-09T15:52:47.800Z,39.75
2018-09-09T15:55:16.813Z,40.12
2018-09-09T15:57:46.011Z,40.14
2018-09-09T16:00:14.903Z,40.96
2018-09-09T16:02:43.912Z,41.02
2018-09-09T16:05:13.737Z,40.49
2018-09-09T16:07:42.420Z,40.98
2018-09-09T16:10:11.242Z,40.47
2018-09-09T16:12:40.130Z,40.44
2018-09-09T16:15:09.702Z,39.24
2018-09-09T16:21:03.486Z,34.79
2018-09-09T16:23:32.475Z,37.65
2018-09-09T16:26:01.184Z,37.59
2018-09-09T16:28:31.106Z,38.19
2018-09-09T16:30:59.750Z,41.72
2018-09-09T16:33:28.924Z,45.15
2018-09-09T16:35:57.815Z,47.27
2018-09-09T16:38:26.371Z,48.73
2018-09-09T16:40:55.953Z,49.82
2018-09-09T16:43:24.494Z,50.93
2018-09-09T16:45:53.132Z,51.49
2018-09-09T16:48:22.078Z,52.46
2018-09-09T16:50:51.664Z,52.86
2018-09-09T16:53:20.721Z,53.65
2018-09-09T16:55:49.320Z,54.33
2018-09-09T16:58:18.395Z,55.16
2018-09-09T17:00:47.518Z,56.69
2018-09-09T17:03:16.431Z,56.04
2018-09-09T17:05:45.082Z,56.42
2018-09-09T17:08:13.744Z,56.56
2018-09-09T17:10:42.375Z,57.35
2018-09-09T17:13:11.293Z,57.54
2018-09-09T17:15:40.024Z,58.61
2018-09-09T17:18:09.436Z,58.19
2018-09-09T17:20:38.416Z,58.72
2018-09-09T17:23:07.505Z,59.07
2018-09-09T17:25:36.933Z,58.83
2018-09-09T17:28:05.753Z,58.89
2018-09-09T17:30:34.592Z,58.83
2018-09-09T17:33:03.367Z,58.37
2018-09-09T17:35:32.162Z,59.29
2018-09-09T17:38:00.836Z,59.39
2018-09-09T17:40:29.392Z,60.32
2018-09-09T17:42:57.980Z,60.67
2018-09-09T17:45:27.003Z,60.26
2018-09-09T17:47:55.756Z,61.01
2018-09-09T17:50:24.565Z,60.31
2018-09-09T17:52:53.356Z,60.60
2018-09-09T17:55:22.197Z,60.43
2018-09-09T17:57:51.044Z,59.86
2018-09-09T18:00:19.945Z,60.05
2018-09-09T18:02:49.990Z,59.68
2018-09-09T18:05:18.823Z,60.18
2018-09-09T18:07:47.676Z,59.66
2018-09-09T18:10:16.585Z,60.64
2018-09-09T18:12:45.277Z,59.89
2018-09-09T18:15:14.417Z,59.53
2018-09-09T18:17:43.063Z,59.03
2018-09-09T18:20:12.609Z,59.50
2018-09-09T18:22:41.991Z,59.90
2018-09-09T18:25:10.576Z,60.26
2018-09-09T18:27:39.603Z,60.67
2018-09-09T18:30:08.755Z,61.08
2018-09-09T18:38:19.042Z,61.67
2018-09-09T18:40:47.782Z,61.86
2018-09-09T18:43:16.739Z,61.69
2018-09-09T18:45:45.392Z,61.25
2018-09-09T18:48:14.079Z,60.48
2018-09-09T18:50:42.775Z,60.81
2018-09-09T18:53:11.913Z,60.94
2018-09-09T18:55:40.494Z,61.83
2018-09-09T18:58:09.212Z,62.14
2018-09-09T19:00:38.097Z,62.96
2018-09-09T19:03:06.829Z,63.02
2018-09-09T19:05:36.104Z,63.61
2018-09-09T19:08:04.998Z,64.08
2018-09-09T19:10:33.772Z,64.13
2018-09-09T19:13:02.336Z,64.01
2018-09-09T19:15:31.044Z,63.87
2018-09-09T19:17:59.719Z,64.31
2018-09-09T19:20:28.452Z,64.18
2018-09-09T19:22:57.245Z,63.84
2018-09-09T19:25:25.915Z,64.01
2018-09-09T19:27:54.651Z,64.14
2018-09-09T19:30:23.937Z,63.46
2018-09-09T19:32:53.449Z,63.22
2018-09-09T19:35:23.744Z,62.52
2018-09-09T19:37:52.458Z,62.67
2018-09-09T19:40:21.175Z,62.49
2018-09-09T19:42:49.819Z,62.38
2018-09-09T19:45:18.365Z,62.66
2018-09-09T19:47:46.993Z,62.75
2018-09-09T19:50:15.688Z,62.97
2018-09-09T19:52:45.001Z,62.56
2018-09-09T19:55:14.249Z,62.82
2018-09-09T19:57:43.116Z,63.18
2018-09-09T20:00:11.843Z,63.48
2018-09-09T20:02:41.439Z,62.63
2018-09-09T20:05:10.743Z,61.72
2018-09-09T20:07:39.347Z,61.66
2018-09-09T20:10:07.882Z,61.91
2018-09-09T20:12:36.600Z,62.24
2018-09-09T20:15:06.268Z,61.93
2018-09-09T20:17:35.298Z,61.54
2018-09-09T20:20:04.153Z,61.67
2018-09-09T20:22:33.617Z,61.10
2018-09-09T20:25:02.454Z,61.44
2018-09-09T20:27:31.032Z,60.76
2018-09-09T20:29:59.777Z,61.24
2018-09-09T20:32:28.659Z,60.90
2018-09-09T20:34:57.756Z,61.17
2018-09-09T20:37:26.835Z,61.30
2018-09-09T20:39:55.695Z,61.21
2018-09-09T20:42:24.407Z,60.67
2018-09-09T20:44:53.243Z,60.31
2018-09-09T20:47:22.152Z,60.19
2018-09-09T20:49:50.885Z,59.81
2018-09-09T20:52:19.963Z,59.58
2018-09-09T20:54:48.718Z,59.01
2018-09-09T20:57:17.624Z,59.63
2018-09-09T20:59:46.256Z,59.43
2018-09-09T21:02:15.102Z,59.14
2018-09-09T21:04:43.802Z,59.21
2018-09-09T21:07:12.634Z,59.08
2018-09-09T21:09:41.262Z,58.55
2018-09-09T21:12:10.096Z,58.23
2018-09-09T21:14:38.940Z,58.23
2018-09-09T21:17:07.560Z,58.73
2018-09-09T21:19:36.100Z,58.30
2018-09-09T21:22:04.797Z,58.80
2018-09-09T21:24:33.500Z,59.48
2018-09-09T21:27:02.177Z,59.10
2018-09-09T21:29:30.980Z,59.73
2018-09-09T21:32:00.625Z,59.84
2018-09-09T21:34:30.271Z,59.77
2018-09-09T21:36:59.196Z,60.14
2018-09-09T21:39:28.464Z,60.62
2018-09-09T21:41:57.371Z,60.74
2018-09-09T21:44:26.242Z,59.86
2018-09-09T21:46:55.120Z,60.42
2018-09-09T21:49:23.727Z,59.83
2018-09-09T21:51:52.504Z,59.84
2018-09-09T21:54:21.193Z,59.47
2018-09-09T21:56:49.867Z,60.08
2018-09-09T21:59:18.512Z,60.08
2018-09-09T22:01:52.711Z,59.35
2018-09-09T22:04:21.432Z,59.73
2018-09-09T22:06:50.196Z,59.86
2018-09-09T22:09:18.824Z,59.98
2018-09-09T22:11:47.352Z,59.92
2018-09-09T22:17:07.280Z,59.92
2018-09-09T22:22:38.851Z,60.85
2018-09-09T22:25:07.419Z,61.78
2018-09-09T22:27:36.456Z,61.50
2018-09-09T22:30:06.883Z,61.98
2018-09-09T22:32:35.590Z,62.13
2018-09-09T22:35:04.570Z,61.55
2018-09-09T22:37:33.979Z,61.23
2018-09-09T22:40:02.632Z,61.24
2018-09-09T22:42:31.327Z,61.21
2018-09-09T22:45:00.007Z,61.51
2018-09-09T22:47:28.703Z,61.36
2018-09-09T22:49:57.329Z,60.91
2018-09-09T22:52:26.080Z,61.13
2018-09-09T22:54:54.944Z,61.43
2018-09-09T22:57:23.661Z,61.83
2018-09-09T22:59:52.198Z,61.71
2018-09-09T23:02:20.747Z,61.88
2018-09-09T23:04:49.923Z,62.60
2018-09-09T23:07:18.562Z,63.06
2018-09-09T23:09:47.261Z,63.18
2018-09-09T23:12:15.984Z,63.35
2018-09-09T23:14:44.585Z,62.59
2018-09-09T23:17:13.531Z,62.76
2018-09-09T23:19:42.190Z,63.06
2018-09-09T23:22:11.082Z,63.74
2018-09-09T23:24:39.741Z,64.23
2018-09-09T23:27:08.487Z,63.90
2018-09-09T23:29:37.797Z,63.57
2018-09-09T23:32:06.827Z,63.85
2018-09-09T23:34:35.523Z,64.22
2018-09-09T23:37:04.247Z,63.92
2018-09-09T23:39:34.169Z,64.45
2018-09-09T23:42:03.018Z,64.03
2018-09-09T23:44:31.725Z,63.95
2018-09-09T23:47:00.554Z,64.45
2018-09-09T23:49:29.288Z,64.78
2018-09-09T23:51:58.173Z,63.90
2018-09-09T23:54:26.920Z,64.24
2018-09-09T23:56:56.613Z,63.88
2018-09-09T23:59:26.383Z,63.64
